sensor_id;sensor_type;location;lat;lon;timestamp;P1;durP1;ratioP1;P2;durP2;ratioP2
63444;SDS011;49573;47.682;9.170;2023-04-06T00:01:58;10.18;;;5.97;;
63444;SDS011;49573;47.682;9.170;2023-04-06T00:04:45;9.15;;;5.97;;
63444;SDS011;49573;47.682;9.170;2023-04-06T00:07:31;9.05;;;5.50;;
63444;SDS011;49573;47.682;9.170;2023-04-06T00:10:20;9.55;;;5.82;;
63444;SDS011;49573;47.682;9.170;2023-04-06T00:13:06;9.88;;;6.43;;
63444;SDS011;49573;47.682;9.170;2023-04-06T00:15:53;9.27;;;6.03;;
63444;SDS011;49573;47.682;9.170;2023-04-06T00:18:39;9.02;;;5.55;;
63444;SDS011;49573;47.682;9.170;2023-04-06T00:21:25;9.68;;;5.93;;
63444;SDS011;49573;47.682;9.170;2023-04-06T00:24:12;8.15;;;5.78;;
63444;SDS011;49573;47.682;9.170;2023-04-06T00:26:59;9.20;;;5.78;;
63444;SDS011;49573;47.682;9.170;2023-04-06T00:29:45;9.20;;;5.78;;
63444;SDS011;49573;47.682;9.170;2023-04-06T00:32:31;8.80;;;5.88;;
63444;SDS011;49573;47.682;9.170;2023-04-06T00:35:17;9.30;;;5.82;;
63444;SDS011;49573;47.682;9.170;2023-04-06T00:38:03;10.50;;;6.60;;
63444;SDS011;49573;47.682;9.170;2023-04-06T00:40:49;8.88;;;5.93;;
63444;SDS011;49573;47.682;9.170;2023-04-06T00:43:36;8.60;;;6.13;;
63444;SDS011;49573;47.682;9.170;2023-04-06T00:46:23;10.23;;;6.50;;
63444;SDS011;49573;47.682;9.170;2023-04-06T00:49:09;8.13;;;5.20;;
63444;SDS011;49573;47.682;9.170;2023-04-06T00:51:56;11.02;;;5.70;;
63444;SDS011;49573;47.682;9.170;2023-04-06T00:54:42;7.95;;;5.78;;
63444;SDS011;49573;47.682;9.170;2023-04-06T00:57:29;9.52;;;5.85;;
63444;SDS011;49573;47.682;9.170;2023-04-06T01:00:17;13.50;;;7.60;;
63444;SDS011;49573;47.682;9.170;2023-04-06T01:03:03;11.55;;;6.75;;
63444;SDS011;49573;47.682;9.170;2023-04-06T01:05:52;13.30;;;6.38;;
63444;SDS011;49573;47.682;9.170;2023-04-06T01:08:43;9.98;;;6.88;;
63444;SDS011;49573;47.682;9.170;2023-04-06T01:11:29;10.90;;;6.85;;
63444;SDS011;49573;47.682;9.170;2023-04-06T01:14:15;9.98;;;6.93;;
63444;SDS011;49573;47.682;9.170;2023-04-06T01:17:02;16.42;;;6.95;;
63444;SDS011;49573;47.682;9.170;2023-04-06T01:19:49;11.43;;;6.78;;
63444;SDS011;49573;47.682;9.170;2023-04-06T01:22:37;10.60;;;6.70;;
63444;SDS011;49573;47.682;9.170;2023-04-06T01:25:23;8.75;;;6.45;;
63444;SDS011;49573;47.682;9.170;2023-04-06T01:28:10;10.77;;;7.30;;
63444;SDS011;49573;47.682;9.170;2023-04-06T01:30:56;11.30;;;7.18;;
63444;SDS011;49573;47.682;9.170;2023-04-06T01:33:42;11.05;;;6.60;;
63444;SDS011;49573;47.682;9.170;2023-04-06T01:36:28;10.93;;;7.37;;
63444;SDS011;49573;47.682;9.170;2023-04-06T01:39:16;10.45;;;6.45;;
63444;SDS011;49573;47.682;9.170;2023-04-06T01:42:02;10.55;;;7.20;;
63444;SDS011;49573;47.682;9.170;2023-04-06T01:44:48;12.67;;;6.60;;
63444;SDS011;49573;47.682;9.170;2023-04-06T01:47:34;11.60;;;7.75;;
63444;SDS011;49573;47.682;9.170;2023-04-06T01:50:20;10.57;;;7.13;;
63444;SDS011;49573;47.682;9.170;2023-04-06T01:53:06;11.23;;;7.30;;
63444;SDS011;49573;47.682;9.170;2023-04-06T01:55:54;10.88;;;8.07;;
63444;SDS011;49573;47.682;9.170;2023-04-06T01:58:40;12.90;;;7.57;;
63444;SDS011;49573;47.682;9.170;2023-04-06T02:01:26;14.55;;;7.82;;
63444;SDS011;49573;47.682;9.170;2023-04-06T02:04:12;11.07;;;7.28;;
63444;SDS011;49573;47.682;9.170;2023-04-06T02:09:45;11.93;;;6.80;;
63444;SDS011;49573;47.682;9.170;2023-04-06T02:12:32;11.07;;;6.82;;
63444;SDS011;49573;47.682;9.170;2023-04-06T02:15:18;11.70;;;7.13;;
63444;SDS011;49573;47.682;9.170;2023-04-06T02:18:04;9.35;;;6.00;;
63444;SDS011;49573;47.682;9.170;2023-04-06T02:20:51;11.33;;;7.40;;
63444;SDS011;49573;47.682;9.170;2023-04-06T02:23:37;11.15;;;7.13;;
63444;SDS011;49573;47.682;9.170;2023-04-06T02:26:23;11.48;;;7.40;;
63444;SDS011;49573;47.682;9.170;2023-04-06T02:29:10;10.45;;;7.00;;
63444;SDS011;49573;47.682;9.170;2023-04-06T02:31:56;9.75;;;6.30;;
63444;SDS011;49573;47.682;9.170;2023-04-06T02:34:42;9.68;;;6.47;;
63444;SDS011;49573;47.682;9.170;2023-04-06T02:37:28;12.00;;;6.38;;
63444;SDS011;49573;47.682;9.170;2023-04-06T02:40:14;9.63;;;6.93;;
63444;SDS011;49573;47.682;9.170;2023-04-06T02:43:00;10.48;;;6.53;;
63444;SDS011;49573;47.682;9.170;2023-04-06T02:45:48;10.20;;;6.65;;
63444;SDS011;49573;47.682;9.170;2023-04-06T02:48:34;11.05;;;6.95;;
63444;SDS011;49573;47.682;9.170;2023-04-06T02:51:22;11.18;;;7.38;;
63444;SDS011;49573;47.682;9.170;2023-04-06T02:54:08;10.98;;;6.43;;
63444;SDS011;49573;47.682;9.170;2023-04-06T02:56:54;10.52;;;7.30;;
63444;SDS011;49573;47.682;9.170;2023-04-06T02:59:40;10.68;;;7.45;;
63444;SDS011;49573;47.682;9.170;2023-04-06T03:02:28;12.98;;;7.30;;
63444;SDS011;49573;47.682;9.170;2023-04-06T03:05:14;10.63;;;7.00;;
63444;SDS011;49573;47.682;9.170;2023-04-06T03:08:00;12.90;;;6.93;;
63444;SDS011;49573;47.682;9.170;2023-04-06T03:10:46;11.13;;;7.40;;
63444;SDS011;49573;47.682;9.170;2023-04-06T03:13:32;10.18;;;6.72;;
63444;SDS011;49573;47.682;9.170;2023-04-06T03:16:18;11.65;;;6.65;;
63444;SDS011;49573;47.682;9.170;2023-04-06T03:19:06;10.93;;;6.97;;
63444;SDS011;49573;47.682;9.170;2023-04-06T03:21:51;10.98;;;6.53;;
63444;SDS011;49573;47.682;9.170;2023-04-06T03:24:37;11.23;;;7.07;;
63444;SDS011;49573;47.682;9.170;2023-04-06T03:27:23;11.48;;;6.78;;
63444;SDS011;49573;47.682;9.170;2023-04-06T03:30:10;12.07;;;6.82;;
63444;SDS011;49573;47.682;9.170;2023-04-06T03:32:56;12.82;;;7.05;;
63444;SDS011;49573;47.682;9.170;2023-04-06T03:35:44;11.40;;;7.65;;
63444;SDS011;49573;47.682;9.170;2023-04-06T03:38:30;12.15;;;8.13;;
63444;SDS011;49573;47.682;9.170;2023-04-06T03:41:16;12.30;;;7.22;;
63444;SDS011;49573;47.682;9.170;2023-04-06T03:44:02;13.32;;;7.65;;
63444;SDS011;49573;47.682;9.170;2023-04-06T03:46:48;12.98;;;8.07;;
63444;SDS011;49573;47.682;9.170;2023-04-06T03:49:34;10.90;;;7.43;;
63444;SDS011;49573;47.682;9.170;2023-04-06T03:52:21;12.13;;;7.67;;
63444;SDS011;49573;47.682;9.170;2023-04-06T03:55:08;11.63;;;7.35;;
63444;SDS011;49573;47.682;9.170;2023-04-06T03:57:54;13.77;;;7.93;;
63444;SDS011;49573;47.682;9.170;2023-04-06T04:00:40;13.10;;;8.10;;
63444;SDS011;49573;47.682;9.170;2023-04-06T04:03:26;13.55;;;8.25;;
63444;SDS011;49573;47.682;9.170;2023-04-06T04:06:12;12.57;;;7.70;;
63444;SDS011;49573;47.682;9.170;2023-04-06T04:09:00;13.98;;;7.97;;
63444;SDS011;49573;47.682;9.170;2023-04-06T04:11:46;11.63;;;7.45;;
63444;SDS011;49573;47.682;9.170;2023-04-06T04:14:32;11.70;;;7.32;;
63444;SDS011;49573;47.682;9.170;2023-04-06T04:17:18;10.80;;;7.22;;
63444;SDS011;49573;47.682;9.170;2023-04-06T04:20:04;9.68;;;6.60;;
63444;SDS011;49573;47.682;9.170;2023-04-06T04:22:51;12.15;;;6.85;;
63444;SDS011;49573;47.682;9.170;2023-04-06T04:25:39;12.00;;;7.40;;
63444;SDS011;49573;47.682;9.170;2023-04-06T04:28:25;13.50;;;7.82;;
63444;SDS011;49573;47.682;9.170;2023-04-06T04:31:11;10.95;;;6.82;;
63444;SDS011;49573;47.682;9.170;2023-04-06T04:33:57;11.55;;;6.90;;
63444;SDS011;49573;47.682;9.170;2023-04-06T04:36:44;12.77;;;7.55;;
63444;SDS011;49573;47.682;9.170;2023-04-06T04:39:30;15.63;;;7.50;;
63444;SDS011;49573;47.682;9.170;2023-04-06T04:42:18;13.80;;;8.10;;
63444;SDS011;49573;47.682;9.170;2023-04-06T04:45:04;12.90;;;7.20;;
63444;SDS011;49573;47.682;9.170;2023-04-06T04:47:51;13.10;;;8.25;;
63444;SDS011;49573;47.682;9.170;2023-04-06T04:50:37;10.77;;;7.28;;
63444;SDS011;49573;47.682;9.170;2023-04-06T04:53:23;11.52;;;7.38;;
63444;SDS011;49573;47.682;9.170;2023-04-06T04:56:09;12.07;;;7.75;;
63444;SDS011;49573;47.682;9.170;2023-04-06T04:58:56;10.95;;;7.30;;
63444;SDS011;49573;47.682;9.170;2023-04-06T05:01:42;12.02;;;7.32;;
63444;SDS011;49573;47.682;9.170;2023-04-06T05:04:28;11.35;;;7.43;;
63444;SDS011;49573;47.682;9.170;2023-04-06T05:07:14;13.43;;;7.95;;
63444;SDS011;49573;47.682;9.170;2023-04-06T05:10:04;12.65;;;7.78;;
63444;SDS011;49573;47.682;9.170;2023-04-06T05:12:51;14.02;;;8.13;;
63444;SDS011;49573;47.682;9.170;2023-04-06T05:15:39;13.23;;;8.23;;
63444;SDS011;49573;47.682;9.170;2023-04-06T05:18:25;12.25;;;8.18;;
63444;SDS011;49573;47.682;9.170;2023-04-06T05:21:11;12.02;;;7.90;;
63444;SDS011;49573;47.682;9.170;2023-04-06T05:23:58;13.85;;;8.30;;
63444;SDS011;49573;47.682;9.170;2023-04-06T05:26:44;16.70;;;8.20;;
63444;SDS011;49573;47.682;9.170;2023-04-06T05:29:30;12.18;;;8.05;;
63444;SDS011;49573;47.682;9.170;2023-04-06T05:32:18;14.55;;;8.63;;
63444;SDS011;49573;47.682;9.170;2023-04-06T05:35:07;15.48;;;9.13;;
63444;SDS011;49573;47.682;9.170;2023-04-06T05:37:54;13.70;;;9.00;;
63444;SDS011;49573;47.682;9.170;2023-04-06T05:40:40;14.93;;;8.38;;
63444;SDS011;49573;47.682;9.170;2023-04-06T05:43:26;16.52;;;8.25;;
63444;SDS011;49573;47.682;9.170;2023-04-06T05:46:12;13.05;;;7.90;;
63444;SDS011;49573;47.682;9.170;2023-04-06T05:49:00;15.00;;;7.82;;
63444;SDS011;49573;47.682;9.170;2023-04-06T05:51:46;13.38;;;8.57;;
63444;SDS011;49573;47.682;9.170;2023-04-06T05:54:32;13.02;;;8.52;;
63444;SDS011;49573;47.682;9.170;2023-04-06T05:57:18;13.60;;;8.43;;
63444;SDS011;49573;47.682;9.170;2023-04-06T06:00:05;38.20;;;18.73;;
63444;SDS011;49573;47.682;9.170;2023-04-06T06:02:54;24.58;;;13.70;;
63444;SDS011;49573;47.682;9.170;2023-04-06T06:05:41;19.75;;;11.25;;
63444;SDS011;49573;47.682;9.170;2023-04-06T06:08:27;16.73;;;9.93;;
63444;SDS011;49573;47.682;9.170;2023-04-06T06:11:13;17.98;;;11.93;;
63444;SDS011;49573;47.682;9.170;2023-04-06T06:13:59;19.52;;;11.70;;
63444;SDS011;49573;47.682;9.170;2023-04-06T06:16:45;17.08;;;9.90;;
63444;SDS011;49573;47.682;9.170;2023-04-06T06:19:32;15.05;;;10.38;;
63444;SDS011;49573;47.682;9.170;2023-04-06T06:22:19;16.40;;;10.60;;
63444;SDS011;49573;47.682;9.170;2023-04-06T06:25:05;17.30;;;9.90;;
63444;SDS011;49573;47.682;9.170;2023-04-06T06:27:51;15.43;;;9.85;;
63444;SDS011;49573;47.682;9.170;2023-04-06T06:30:37;15.65;;;9.90;;
63444;SDS011;49573;47.682;9.170;2023-04-06T06:33:23;14.88;;;9.98;;
63444;SDS011;49573;47.682;9.170;2023-04-06T06:36:11;15.98;;;9.88;;
63444;SDS011;49573;47.682;9.170;2023-04-06T06:38:58;13.88;;;9.35;;
63444;SDS011;49573;47.682;9.170;2023-04-06T06:41:45;14.85;;;9.23;;
63444;SDS011;49573;47.682;9.170;2023-04-06T06:44:31;15.65;;;9.52;;
63444;SDS011;49573;47.682;9.170;2023-04-06T06:47:17;17.17;;;10.07;;
63444;SDS011;49573;47.682;9.170;2023-04-06T06:50:04;15.35;;;10.35;;
63444;SDS011;49573;47.682;9.170;2023-04-06T06:52:51;16.08;;;9.82;;
63444;SDS011;49573;47.682;9.170;2023-04-06T06:55:39;17.02;;;10.73;;
63444;SDS011;49573;47.682;9.170;2023-04-06T06:58:25;14.93;;;9.55;;
63444;SDS011;49573;47.682;9.170;2023-04-06T07:01:11;15.73;;;9.65;;
63444;SDS011;49573;47.682;9.170;2023-04-06T07:03:57;17.38;;;10.27;;
63444;SDS011;49573;47.682;9.170;2023-04-06T07:06:43;14.88;;;9.40;;
63444;SDS011;49573;47.682;9.170;2023-04-06T07:09:29;16.40;;;9.67;;
63444;SDS011;49573;47.682;9.170;2023-04-06T07:12:17;14.45;;;9.65;;
63444;SDS011;49573;47.682;9.170;2023-04-06T07:15:03;15.68;;;9.73;;
63444;SDS011;49573;47.682;9.170;2023-04-06T07:20:37;14.65;;;9.82;;
63444;SDS011;49573;47.682;9.170;2023-04-06T07:23:23;14.20;;;9.85;;
63444;SDS011;49573;47.682;9.170;2023-04-06T07:26:09;17.48;;;10.02;;
63444;SDS011;49573;47.682;9.170;2023-04-06T07:28:57;14.05;;;9.27;;
63444;SDS011;49573;47.682;9.170;2023-04-06T07:31:43;14.70;;;9.77;;
63444;SDS011;49573;47.682;9.170;2023-04-06T07:34:29;15.77;;;9.30;;
63444;SDS011;49573;47.682;9.170;2023-04-06T07:37:15;15.60;;;10.20;;
63444;SDS011;49573;47.682;9.170;2023-04-06T07:40:01;15.48;;;10.18;;
63444;SDS011;49573;47.682;9.170;2023-04-06T07:42:47;16.23;;;9.55;;
63444;SDS011;49573;47.682;9.170;2023-04-06T07:45:34;14.68;;;9.57;;
63444;SDS011;49573;47.682;9.170;2023-04-06T07:48:20;15.32;;;9.82;;
63444;SDS011;49573;47.682;9.170;2023-04-06T07:51:06;13.25;;;9.57;;
63444;SDS011;49573;47.682;9.170;2023-04-06T07:53:52;13.85;;;9.02;;
63444;SDS011;49573;47.682;9.170;2023-04-06T07:56:38;15.13;;;9.70;;
63444;SDS011;49573;47.682;9.170;2023-04-06T07:59:24;15.82;;;9.88;;
63444;SDS011;49573;47.682;9.170;2023-04-06T08:02:12;14.40;;;9.18;;
63444;SDS011;49573;47.682;9.170;2023-04-06T08:04:58;14.55;;;8.93;;
63444;SDS011;49573;47.682;9.170;2023-04-06T08:07:44;15.70;;;9.77;;
63444;SDS011;49573;47.682;9.170;2023-04-06T08:10:30;15.20;;;9.35;;
63444;SDS011;49573;47.682;9.170;2023-04-06T08:13:16;19.38;;;9.93;;
63444;SDS011;49573;47.682;9.170;2023-04-06T08:16:02;16.88;;;8.73;;
63444;SDS011;49573;47.682;9.170;2023-04-06T08:18:50;13.15;;;8.60;;
63444;SDS011;49573;47.682;9.170;2023-04-06T08:21:36;13.85;;;8.57;;
63444;SDS011;49573;47.682;9.170;2023-04-06T08:24:22;12.80;;;8.20;;
63444;SDS011;49573;47.682;9.170;2023-04-06T08:27:08;11.82;;;8.23;;
63444;SDS011;49573;47.682;9.170;2023-04-06T08:29:54;11.48;;;8.43;;
63444;SDS011;49573;47.682;9.170;2023-04-06T08:32:41;12.47;;;7.90;;
63444;SDS011;49573;47.682;9.170;2023-04-06T08:35:28;12.57;;;9.18;;
63444;SDS011;49573;47.682;9.170;2023-04-06T08:38:14;12.18;;;8.55;;
63444;SDS011;49573;47.682;9.170;2023-04-06T08:41:06;11.75;;;8.23;;
63444;SDS011;49573;47.682;9.170;2023-04-06T08:43:54;14.10;;;8.50;;
63444;SDS011;49573;47.682;9.170;2023-04-06T08:46:43;12.77;;;8.32;;
63444;SDS011;49573;47.682;9.170;2023-04-06T08:49:29;13.27;;;8.18;;
63444;SDS011;49573;47.682;9.170;2023-04-06T08:52:17;12.90;;;9.00;;
63444;SDS011;49573;47.682;9.170;2023-04-06T08:55:04;13.13;;;8.85;;
63444;SDS011;49573;47.682;9.170;2023-04-06T08:57:51;12.27;;;8.50;;
63444;SDS011;49573;47.682;9.170;2023-04-06T09:00:40;11.85;;;8.82;;
63444;SDS011;49573;47.682;9.170;2023-04-06T09:03:27;14.25;;;9.48;;
63444;SDS011;49573;47.682;9.170;2023-04-06T09:06:14;13.65;;;9.15;;
63444;SDS011;49573;47.682;9.170;2023-04-06T09:09:02;12.00;;;8.63;;
63444;SDS011;49573;47.682;9.170;2023-04-06T09:11:49;13.80;;;9.00;;
63444;SDS011;49573;47.682;9.170;2023-04-06T09:14:36;15.75;;;10.13;;
63444;SDS011;49573;47.682;9.170;2023-04-06T09:17:23;13.15;;;9.00;;
63444;SDS011;49573;47.682;9.170;2023-04-06T09:22:56;12.68;;;8.90;;
63444;SDS011;49573;47.682;9.170;2023-04-06T09:25:44;13.43;;;9.07;;
63444;SDS011;49573;47.682;9.170;2023-04-06T09:28:40;20.25;;;9.23;;
63444;SDS011;49573;47.682;9.170;2023-04-06T09:31:27;12.57;;;8.68;;
63444;SDS011;49573;47.682;9.170;2023-04-06T09:34:20;12.88;;;8.40;;
63444;SDS011;49573;47.682;9.170;2023-04-06T09:37:12;17.05;;;10.15;;
63444;SDS011;49573;47.682;9.170;2023-04-06T09:40:02;14.85;;;8.77;;
63444;SDS011;49573;47.682;9.170;2023-04-06T09:42:49;14.80;;;7.75;;
63444;SDS011;49573;47.682;9.170;2023-04-06T09:45:38;16.38;;;8.70;;
63444;SDS011;49573;47.682;9.170;2023-04-06T09:48:24;20.00;;;11.32;;
63444;SDS011;49573;47.682;9.170;2023-04-06T09:51:11;14.00;;;9.23;;
63444;SDS011;49573;47.682;9.170;2023-04-06T09:54:01;10.93;;;7.78;;
63444;SDS011;49573;47.682;9.170;2023-04-06T09:56:50;14.10;;;8.90;;
63444;SDS011;49573;47.682;9.170;2023-04-06T09:59:44;12.32;;;9.32;;
63444;SDS011;49573;47.682;9.170;2023-04-06T10:02:38;12.18;;;8.98;;
63444;SDS011;49573;47.682;9.170;2023-04-06T10:05:31;15.30;;;8.70;;
63444;SDS011;49573;47.682;9.170;2023-04-06T10:08:22;11.20;;;7.68;;
63444;SDS011;49573;47.682;9.170;2023-04-06T10:11:13;10.35;;;7.20;;
63444;SDS011;49573;47.682;9.170;2023-04-06T10:13:59;14.63;;;8.27;;
63444;SDS011;49573;47.682;9.170;2023-04-06T10:16:47;16.15;;;10.05;;
63444;SDS011;49573;47.682;9.170;2023-04-06T10:19:38;13.52;;;8.95;;
63444;SDS011;49573;47.682;9.170;2023-04-06T10:22:40;14.85;;;8.35;;
63444;SDS011;49573;47.682;9.170;2023-04-06T10:25:30;10.80;;;7.43;;
63444;SDS011;49573;47.682;9.170;2023-04-06T10:28:19;10.65;;;6.47;;
63444;SDS011;49573;47.682;9.170;2023-04-06T10:31:05;11.45;;;8.15;;
63444;SDS011;49573;47.682;9.170;2023-04-06T10:33:56;10.85;;;7.57;;
63444;SDS011;49573;47.682;9.170;2023-04-06T10:36:43;11.77;;;8.00;;
63444;SDS011;49573;47.682;9.170;2023-04-06T10:39:28;10.05;;;6.90;;
63444;SDS011;49573;47.682;9.170;2023-04-06T10:42:15;15.53;;;7.30;;
63444;SDS011;49573;47.682;9.170;2023-04-06T10:45:01;9.90;;;7.05;;
63444;SDS011;49573;47.682;9.170;2023-04-06T10:47:52;11.38;;;7.10;;
63444;SDS011;49573;47.682;9.170;2023-04-06T10:50:39;11.38;;;7.28;;
63444;SDS011;49573;47.682;9.170;2023-04-06T10:53:27;12.43;;;7.93;;
63444;SDS011;49573;47.682;9.170;2023-04-06T10:56:13;10.63;;;7.75;;
63444;SDS011;49573;47.682;9.170;2023-04-06T10:59:00;11.50;;;7.65;;
63444;SDS011;49573;47.682;9.170;2023-04-06T11:01:47;12.23;;;7.35;;
63444;SDS011;49573;47.682;9.170;2023-04-06T11:04:33;12.88;;;7.57;;
63444;SDS011;49573;47.682;9.170;2023-04-06T11:07:23;9.23;;;6.27;;
63444;SDS011;49573;47.682;9.170;2023-04-06T11:10:10;8.88;;;5.68;;
63444;SDS011;49573;47.682;9.170;2023-04-06T11:12:56;9.05;;;5.93;;
63444;SDS011;49573;47.682;9.170;2023-04-06T11:15:42;7.88;;;5.50;;
63444;SDS011;49573;47.682;9.170;2023-04-06T11:18:28;9.15;;;5.70;;
63444;SDS011;49573;47.682;9.170;2023-04-06T11:21:14;8.50;;;5.70;;
63444;SDS011;49573;47.682;9.170;2023-04-06T11:24:06;8.30;;;5.93;;
63444;SDS011;49573;47.682;9.170;2023-04-06T11:26:53;8.30;;;5.80;;
63444;SDS011;49573;47.682;9.170;2023-04-06T11:29:40;9.90;;;6.43;;
63444;SDS011;49573;47.682;9.170;2023-04-06T11:32:27;9.23;;;5.65;;
63444;SDS011;49573;47.682;9.170;2023-04-06T11:35:19;8.47;;;6.00;;
63444;SDS011;49573;47.682;9.170;2023-04-06T11:38:06;7.88;;;5.35;;
63444;SDS011;49573;47.682;9.170;2023-04-06T11:40:53;9.55;;;6.25;;
63444;SDS011;49573;47.682;9.170;2023-04-06T11:43:45;7.65;;;5.40;;
63444;SDS011;49573;47.682;9.170;2023-04-06T11:46:32;8.45;;;5.78;;
63444;SDS011;49573;47.682;9.170;2023-04-06T11:49:18;7.87;;;5.60;;
63444;SDS011;49573;47.682;9.170;2023-04-06T11:52:13;8.03;;;5.33;;
63444;SDS011;49573;47.682;9.170;2023-04-06T11:55:09;8.50;;;5.05;;
63444;SDS011;49573;47.682;9.170;2023-04-06T11:57:58;7.88;;;4.93;;
63444;SDS011;49573;47.682;9.170;2023-04-06T12:00:44;7.22;;;4.80;;
63444;SDS011;49573;47.682;9.170;2023-04-06T12:03:30;6.73;;;4.30;;
63444;SDS011;49573;47.682;9.170;2023-04-06T12:06:16;7.88;;;4.82;;
63444;SDS011;49573;47.682;9.170;2023-04-06T12:09:03;7.43;;;5.13;;
63444;SDS011;49573;47.682;9.170;2023-04-06T12:11:49;10.03;;;5.23;;
63444;SDS011;49573;47.682;9.170;2023-04-06T12:14:36;6.95;;;4.85;;
63444;SDS011;49573;47.682;9.170;2023-04-06T12:17:22;7.80;;;5.07;;
63444;SDS011;49573;47.682;9.170;2023-04-06T12:20:09;7.03;;;4.32;;
63444;SDS011;49573;47.682;9.170;2023-04-06T12:25:41;7.40;;;4.78;;
63444;SDS011;49573;47.682;9.170;2023-04-06T12:28:28;8.90;;;4.78;;
63444;SDS011;49573;47.682;9.170;2023-04-06T12:31:16;8.07;;;5.27;;
63444;SDS011;49573;47.682;9.170;2023-04-06T12:34:02;6.95;;;4.45;;
63444;SDS011;49573;47.682;9.170;2023-04-06T12:36:48;7.85;;;4.65;;
63444;SDS011;49573;47.682;9.170;2023-04-06T12:39:34;6.35;;;4.38;;
63444;SDS011;49573;47.682;9.170;2023-04-06T12:42:20;7.73;;;4.67;;
63444;SDS011;49573;47.682;9.170;2023-04-06T12:45:07;7.70;;;4.57;;
63444;SDS011;49573;47.682;9.170;2023-04-06T12:50:41;6.63;;;4.45;;
63444;SDS011;49573;47.682;9.170;2023-04-06T12:53:27;6.07;;;4.17;;
63444;SDS011;49573;47.682;9.170;2023-04-06T12:56:14;7.18;;;4.85;;
63444;SDS011;49573;47.682;9.170;2023-04-06T12:59:02;7.22;;;4.90;;
63444;SDS011;49573;47.682;9.170;2023-04-06T13:01:48;6.93;;;4.82;;
63444;SDS011;49573;47.682;9.170;2023-04-06T13:04:36;6.60;;;4.90;;
63444;SDS011;49573;47.682;9.170;2023-04-06T13:07:22;8.27;;;4.45;;
63444;SDS011;49573;47.682;9.170;2023-04-06T13:10:08;6.23;;;4.60;;
63444;SDS011;49573;47.682;9.170;2023-04-06T13:12:54;7.60;;;4.93;;
63444;SDS011;49573;47.682;9.170;2023-04-06T13:15:40;5.97;;;4.50;;
63444;SDS011;49573;47.682;9.170;2023-04-06T13:18:26;7.75;;;4.97;;
63444;SDS011;49573;47.682;9.170;2023-04-06T13:21:14;6.63;;;4.55;;
63444;SDS011;49573;47.682;9.170;2023-04-06T13:24:01;6.20;;;4.03;;
63444;SDS011;49573;47.682;9.170;2023-04-06T13:26:47;6.93;;;4.60;;
63444;SDS011;49573;47.682;9.170;2023-04-06T13:29:33;7.77;;;4.80;;
63444;SDS011;49573;47.682;9.170;2023-04-06T13:32:20;6.43;;;4.53;;
63444;SDS011;49573;47.682;9.170;2023-04-06T13:35:06;6.97;;;5.00;;
63444;SDS011;49573;47.682;9.170;2023-04-06T13:37:54;7.05;;;4.80;;
63444;SDS011;49573;47.682;9.170;2023-04-06T13:40:41;8.30;;;5.15;;
63444;SDS011;49573;47.682;9.170;2023-04-06T13:43:27;7.45;;;4.90;;
63444;SDS011;49573;47.682;9.170;2023-04-06T13:46:14;9.07;;;6.00;;
63444;SDS011;49573;47.682;9.170;2023-04-06T13:49:00;8.70;;;5.00;;
63444;SDS011;49573;47.682;9.170;2023-04-06T13:51:46;7.90;;;5.20;;
63444;SDS011;49573;47.682;9.170;2023-04-06T13:54:34;6.38;;;4.75;;
63444;SDS011;49573;47.682;9.170;2023-04-06T13:57:22;7.97;;;5.05;;
63444;SDS011;49573;47.682;9.170;2023-04-06T14:00:09;8.30;;;5.43;;
63444;SDS011;49573;47.682;9.170;2023-04-06T14:02:58;6.35;;;4.82;;
63444;SDS011;49573;47.682;9.170;2023-04-06T14:05:46;7.03;;;5.05;;
63444;SDS011;49573;47.682;9.170;2023-04-06T14:08:34;8.35;;;5.35;;
63444;SDS011;49573;47.682;9.170;2023-04-06T14:11:21;7.65;;;5.05;;
63444;SDS011;49573;47.682;9.170;2023-04-06T14:14:08;8.90;;;5.00;;
63444;SDS011;49573;47.682;9.170;2023-04-06T14:16:54;7.35;;;5.05;;
63444;SDS011;49573;47.682;9.170;2023-04-06T14:19:41;7.00;;;5.07;;
63444;SDS011;49573;47.682;9.170;2023-04-06T14:25:15;7.63;;;5.00;;
63444;SDS011;49573;47.682;9.170;2023-04-06T14:28:03;7.68;;;4.88;;
63444;SDS011;49573;47.682;9.170;2023-04-06T14:30:49;8.27;;;5.32;;
63444;SDS011;49573;47.682;9.170;2023-04-06T14:33:35;9.35;;;5.05;;
63444;SDS011;49573;47.682;9.170;2023-04-06T14:36:22;7.68;;;5.53;;
63444;SDS011;49573;47.682;9.170;2023-04-06T14:39:08;7.55;;;4.97;;
63444;SDS011;49573;47.682;9.170;2023-04-06T14:41:55;8.90;;;5.38;;
63444;SDS011;49573;47.682;9.170;2023-04-06T14:44:42;9.10;;;5.40;;
63444;SDS011;49573;47.682;9.170;2023-04-06T14:47:30;7.53;;;5.40;;
63444;SDS011;49573;47.682;9.170;2023-04-06T14:50:17;7.95;;;5.05;;
63444;SDS011;49573;47.682;9.170;2023-04-06T14:53:03;7.25;;;4.85;;
63444;SDS011;49573;47.682;9.170;2023-04-06T14:55:50;8.88;;;5.10;;
63444;SDS011;49573;47.682;9.170;2023-04-06T14:58:36;9.45;;;5.53;;
63444;SDS011;49573;47.682;9.170;2023-04-06T15:01:24;8.03;;;5.03;;
63444;SDS011;49573;47.682;9.170;2023-04-06T15:04:10;8.02;;;5.32;;
63444;SDS011;49573;47.682;9.170;2023-04-06T15:06:56;8.03;;;5.17;;
63444;SDS011;49573;47.682;9.170;2023-04-06T15:09:42;8.63;;;5.00;;
63444;SDS011;49573;47.682;9.170;2023-04-06T15:12:28;6.47;;;4.80;;
63444;SDS011;49573;47.682;9.170;2023-04-06T15:15:15;11.40;;;4.68;;
63444;SDS011;49573;47.682;9.170;2023-04-06T15:18:02;7.27;;;4.90;;
63444;SDS011;49573;47.682;9.170;2023-04-06T15:20:48;9.90;;;5.45;;
63444;SDS011;49573;47.682;9.170;2023-04-06T15:23:35;9.88;;;5.10;;
63444;SDS011;49573;47.682;9.170;2023-04-06T15:26:21;7.57;;;4.95;;
63444;SDS011;49573;47.682;9.170;2023-04-06T15:29:07;9.07;;;4.77;;
63444;SDS011;49573;47.682;9.170;2023-04-06T15:31:54;7.47;;;4.50;;
63444;SDS011;49573;47.682;9.170;2023-04-06T15:34:41;8.63;;;4.30;;
63444;SDS011;49573;47.682;9.170;2023-04-06T15:37:27;8.43;;;4.32;;
63444;SDS011;49573;47.682;9.170;2023-04-06T15:40:13;5.77;;;3.60;;
63444;SDS011;49573;47.682;9.170;2023-04-06T15:43:01;6.43;;;3.92;;
63444;SDS011;49573;47.682;9.170;2023-04-06T15:45:47;7.20;;;3.90;;
63444;SDS011;49573;47.682;9.170;2023-04-06T15:48:33;6.63;;;3.93;;
63444;SDS011;49573;47.682;9.170;2023-04-06T15:51:20;5.95;;;3.70;;
63444;SDS011;49573;47.682;9.170;2023-04-06T15:54:06;6.53;;;4.10;;
63444;SDS011;49573;47.682;9.170;2023-04-06T15:56:52;6.40;;;3.63;;
63444;SDS011;49573;47.682;9.170;2023-04-06T15:59:38;6.88;;;4.03;;
63444;SDS011;49573;47.682;9.170;2023-04-06T16:02:27;6.75;;;4.30;;
63444;SDS011;49573;47.682;9.170;2023-04-06T16:05:13;5.70;;;3.90;;
63444;SDS011;49573;47.682;9.170;2023-04-06T16:08:01;6.18;;;3.97;;
63444;SDS011;49573;47.682;9.170;2023-04-06T16:10:48;7.00;;;4.20;;
63444;SDS011;49573;47.682;9.170;2023-04-06T16:13:34;6.82;;;4.18;;
63444;SDS011;49573;47.682;9.170;2023-04-06T16:16:21;5.70;;;3.80;;
63444;SDS011;49573;47.682;9.170;2023-04-06T16:19:07;9.32;;;4.07;;
63444;SDS011;49573;47.682;9.170;2023-04-06T16:21:53;7.38;;;4.00;;
63444;SDS011;49573;47.682;9.170;2023-04-06T16:24:41;6.03;;;3.63;;
63444;SDS011;49573;47.682;9.170;2023-04-06T16:27:27;7.55;;;4.53;;
63444;SDS011;49573;47.682;9.170;2023-04-06T16:30:13;6.27;;;4.13;;
63444;SDS011;49573;47.682;9.170;2023-04-06T16:33:00;6.93;;;3.88;;
63444;SDS011;49573;47.682;9.170;2023-04-06T16:35:46;5.65;;;3.60;;
63444;SDS011;49573;47.682;9.170;2023-04-06T16:38:32;6.43;;;3.55;;
63444;SDS011;49573;47.682;9.170;2023-04-06T16:41:21;6.65;;;3.80;;
63444;SDS011;49573;47.682;9.170;2023-04-06T16:44:07;31.92;;;21.23;;
63444;SDS011;49573;47.682;9.170;2023-04-06T16:46:55;7.07;;;5.10;;
63444;SDS011;49573;47.682;9.170;2023-04-06T16:49:42;7.65;;;5.63;;
63444;SDS011;49573;47.682;9.170;2023-04-06T16:52:28;7.95;;;6.05;;